Capetan Vassilis — C6S2085 — position and weather

sailwx.info

Track history (hours):
 
Tides and Currents Weather Stations Pressure Air Temp Water Temp Dewpoint Dewpoint Depression Visibility Wind Speed Wind Dir Waves Ship Positions

Capetan Vassilis

Last reported at 2014-Aug-20 20:13 UTC. Time now 2014-Aug-29 10:22 UTC.
Position N 35°53' E 022°18'.
Warning: this ship's position is 8 days out of date.

Length 191 m; draft 10.2 m.

MMSI: 311552000.

Date/timePositionNaut miles runAvg speedWind from/ knotsBaromVisibWave heightAir tempDewpointWater temp
2014-Aug-20 20:13N 35°53' E 022°18'2012.1
2014-Aug-20 18:32N 35°40' E 022°37'1212.4
2014-Aug-20 17:33N 35°32' E 022°48'1312.6
2014-Aug-20 16:33N 35°23' E 022°60'48312.0
2014-Aug-19 00:18N 31°52' E 031°41'1111.3
2014-Aug-18 23:19N 31°48' E 031°53'911.1
2014-Aug-18 22:33N 31°43' E 032°02'1211.6
2014-Aug-18 21:33N 31°35' E 032°12'1211.5
2014-Aug-18 20:31N 31°28' E 032°23'18 8.7
2014-Aug-18 18:29N 31°11' E 032°20'5 5.3
2014-Aug-18 17:34N 31°06' E 032°19'9 7.2
2014-Aug-18 16:18N 30°57' E 032°19'10 9.1
2014-Aug-18 15:11N 30°47' E 032°20'  
Track history (hours):
 
Tides and Currents Weather Stations Pressure Air Temp Water Temp Dewpoint Dewpoint Depression Visibility Wind Speed Wind Dir Waves Ship Positions

Capetan Vassilis

Last reported at 2014-Aug-20 20:13 UTC. Time now 2014-Aug-29 10:22 UTC.
Position N 35°53' E 022°18'.
Warning: this ship's position is 8 days out of date.

Length 191 m; draft 10.2 m.

MMSI: 311552000.

Date/timePositionNaut miles runAvg speedWind from/ knotsBaromVisibWave heightAir tempDewpointWater temp
2014-Aug-20 20:13N 35°53' E 022°18'2012.1
2014-Aug-20 18:32N 35°40' E 022°37'1212.4
2014-Aug-20 17:33N 35°32' E 022°48'1312.6
2014-Aug-20 16:33N 35°23' E 022°60'48312.0
2014-Aug-19 00:18N 31°52' E 031°41'1111.3
2014-Aug-18 23:19N 31°48' E 031°53'911.1
2014-Aug-18 22:33N 31°43' E 032°02'1211.6
2014-Aug-18 21:33N 31°35' E 032°12'1211.5
2014-Aug-18 20:31N 31°28' E 032°23'18 8.7
2014-Aug-18 18:29N 31°11' E 032°20'5 5.3
2014-Aug-18 17:34N 31°06' E 032°19'9 7.2
2014-Aug-18 16:18N 30°57' E 032°19'10 9.1
2014-Aug-18 15:11N 30°47' E 032°20'  

Dump ship's entire track history